createdAt,value
2023-04-28T00:03:38.826Z,98407.25
2023-04-28T00:07:56.718Z,98402.53
2023-04-28T00:12:14.242Z,98403.06
2023-04-28T00:16:33.172Z,98397.34
2023-04-28T00:20:51.040Z,98392.88
2023-04-28T00:25:09.994Z,98384.56
2023-04-28T00:29:30.122Z,98395.41
2023-04-28T00:33:47.878Z,98397.97
2023-04-28T00:38:05.456Z,98399.44
2023-04-28T00:42:23.627Z,98395.50
2023-04-28T00:46:42.065Z,98395.41
2023-04-28T00:50:59.703Z,98392.09
2023-04-28T00:55:18.959Z,98393.91
2023-04-28T00:59:37.347Z,98395.75
2023-04-28T01:03:55.319Z,98398.47
2023-04-28T01:08:14.693Z,98398.50
2023-04-28T01:12:32.338Z,98403.31
2023-04-28T01:16:50.057Z,98412.50
2023-04-28T01:21:07.735Z,98405.09
2023-04-28T01:25:25.797Z,98397.84
2023-04-28T01:29:46.242Z,98401.09
2023-04-28T01:34:04.231Z,98400.88
2023-04-28T01:38:21.751Z,98402.50
2023-04-28T01:42:39.620Z,98396.25
2023-04-28T01:46:57.155Z,98397.16
2023-04-28T01:51:14.800Z,98390.22
2023-04-28T01:55:32.387Z,98400.94
2023-04-28T01:59:50.032Z,98387.00
2023-04-28T02:04:07.757Z,98392.19
2023-04-28T02:08:25.600Z,98394.44
2023-04-28T02:12:43.113Z,98395.97
2023-04-28T02:17:01.067Z,98395.41
2023-04-28T02:21:18.112Z,98390.56
2023-04-28T02:25:35.751Z,98390.81
2023-04-28T02:29:53.644Z,98392.75
2023-04-28T02:34:11.531Z,98387.84
2023-04-28T02:38:29.327Z,98395.75
2023-04-28T02:42:47.068Z,98384.66
2023-04-28T02:47:04.913Z,98387.38
2023-04-28T02:51:22.737Z,98382.59
2023-04-28T02:55:40.781Z,98378.72
2023-04-28T02:59:58.516Z,98376.28
2023-04-28T03:04:17.177Z,98383.69
2023-04-28T03:08:35.735Z,98377.53
2023-04-28T03:12:53.398Z,98382.22
2023-04-28T03:17:11.053Z,98381.16
2023-04-28T03:21:29.234Z,98381.41
2023-04-28T03:25:47.067Z,98382.88
2023-04-28T03:30:05.530Z,98381.81
2023-04-28T03:34:23.343Z,98374.44
2023-04-28T03:38:41.782Z,98379.19
2023-04-28T03:43:01.194Z,98386.88
2023-04-28T03:47:19.749Z,98382.97
2023-04-28T03:51:37.578Z,98381.84
2023-04-28T03:55:55.303Z,98384.00
2023-04-28T04:00:14.653Z,98381.44
2023-04-28T04:04:32.050Z,98382.19
2023-04-28T04:08:49.939Z,98372.66
2023-04-28T04:13:07.702Z,98370.94
2023-04-28T04:17:25.247Z,98368.09
2023-04-28T04:21:42.954Z,98372.53
2023-04-28T04:26:00.670Z,98375.50
2023-04-28T04:30:18.295Z,98386.28
2023-04-28T04:34:35.908Z,98378.66
2023-04-28T04:38:54.623Z,98375.25
2023-04-28T04:43:12.380Z,98384.69
2023-04-28T04:47:30.079Z,98384.91
2023-04-28T04:51:47.663Z,98382.63
2023-04-28T04:56:05.919Z,98393.66
2023-04-28T05:00:23.444Z,98390.03
2023-04-28T05:04:41.225Z,98394.84
2023-04-28T05:08:59.529Z,98403.97
2023-04-28T05:13:17.266Z,98407.84
2023-04-28T05:17:35.267Z,98407.16
2023-04-28T05:21:55.141Z,98412.31
2023-04-28T05:26:12.688Z,98403.69
2023-04-28T05:30:30.666Z,98405.41
2023-04-28T05:34:48.310Z,98412.88
2023-04-28T05:39:05.870Z,98412.28
2023-04-28T05:43:24.120Z,98406.19
2023-04-28T05:47:41.757Z,98401.94
2023-04-28T05:51:59.495Z,98401.16
2023-04-28T05:56:17.502Z,98405.72
2023-04-28T06:00:35.850Z,98408.97
2023-04-28T06:04:53.500Z,98405.88
2023-04-28T06:09:11.347Z,98415.75
2023-04-28T06:13:29.004Z,98414.22
2023-04-28T06:17:46.973Z,98413.56
2023-04-28T06:22:04.566Z,98416.31
2023-04-28T06:26:22.792Z,98410.28
2023-04-28T06:30:41.685Z,98406.63
2023-04-28T06:35:00.510Z,98401.22
2023-04-28T06:39:18.230Z,98402.34
2023-04-28T06:43:35.773Z,98397.69
2023-04-28T06:47:56.224Z,98399.22
2023-04-28T06:52:15.025Z,98390.44
2023-04-28T06:56:32.801Z,98381.59
2023-04-28T07:00:50.928Z,98387.97
2023-04-28T07:05:09.165Z,98386.59
2023-04-28T07:09:26.800Z,98387.94
2023-04-28T07:13:46.667Z,98381.53
2023-04-28T07:18:04.467Z,98386.63
2023-04-28T07:22:22.838Z,98384.69
2023-04-28T07:26:40.383Z,98380.19
2023-04-28T07:30:58.275Z,98376.56
2023-04-28T07:35:16.053Z,98368.91
2023-04-28T07:39:35.266Z,98376.13
2023-04-28T07:43:52.920Z,98366.53
2023-04-28T07:48:12.094Z,98376.94
2023-04-28T07:52:33.830Z,98375.31
2023-04-28T07:56:52.265Z,98383.16
2023-04-28T08:01:09.830Z,98377.44
2023-04-28T08:05:27.801Z,98366.84
2023-04-28T08:09:47.801Z,98367.75
2023-04-28T08:14:05.479Z,98367.94
2023-04-28T08:18:24.013Z,98365.16
2023-04-28T08:22:42.225Z,98357.94
2023-04-28T08:27:00.766Z,98357.03
2023-04-28T08:31:18.358Z,98355.63
2023-04-28T08:35:36.267Z,98346.50
2023-04-28T08:40:02.362Z,98343.31
2023-04-28T08:44:20.065Z,98343.03
2023-04-28T08:48:45.904Z,98359.09
2023-04-28T08:53:05.087Z,98366.91
2023-04-28T08:57:23.250Z,98363.63
2023-04-28T09:01:44.011Z,98369.56
2023-04-28T09:06:02.961Z,98359.41
2023-04-28T09:10:25.927Z,98343.09
2023-04-28T09:14:43.569Z,98350.34
2023-04-28T09:19:01.482Z,98346.34
2023-04-28T09:23:22.759Z,98333.59
2023-04-28T09:27:40.555Z,98325.00
2023-04-28T09:32:18.379Z,98319.25
2023-04-28T09:36:36.235Z,98314.84
2023-04-28T09:41:01.636Z,98303.16
2023-04-28T09:45:19.345Z,98310.09
2023-04-28T09:49:55.981Z,98307.94
2023-04-28T09:54:14.276Z,98314.63
2023-04-28T09:58:33.156Z,98303.63
2023-04-28T10:03:12.853Z,98301.34
2023-04-28T10:07:35.199Z,98306.13
2023-04-28T10:11:53.406Z,98293.75
2023-04-28T10:16:11.667Z,98289.00
2023-04-28T10:20:30.341Z,98289.22
2023-04-28T10:25:22.958Z,98286.84
2023-04-28T10:29:40.865Z,98280.84
2023-04-28T10:34:25.632Z,98276.75
2023-04-28T10:39:11.298Z,98280.22
2023-04-28T10:43:38.248Z,98285.13
2023-04-28T10:48:06.746Z,98264.56
2023-04-28T10:52:33.752Z,98271.16
2023-04-28T10:57:18.431Z,98258.78
2023-04-28T11:01:40.653Z,98266.50
2023-04-28T11:06:28.917Z,98252.03
2023-04-28T11:11:14.940Z,98247.09
2023-04-28T11:15:33.302Z,98236.06
2023-04-28T11:19:51.713Z,98227.34
2023-04-28T11:24:10.841Z,98228.22
2023-04-28T11:28:28.763Z,98220.09
2023-04-28T11:32:50.675Z,98233.75
2023-04-28T11:37:09.524Z,98217.19
2023-04-28T11:41:27.588Z,98223.03
2023-04-28T11:45:47.381Z,98230.94
2023-04-28T11:50:05.521Z,98240.41
2023-04-28T11:54:29.095Z,98257.38
2023-04-28T11:58:47.245Z,98281.63
2023-04-28T12:03:08.812Z,98241.38
2023-04-28T12:07:26.491Z,98270.78
2023-04-28T12:12:03.530Z,98173.53
2023-04-28T12:16:39.573Z,98319.16
2023-04-28T12:20:57.086Z,98306.44
2023-04-28T12:25:17.724Z,98301.06
2023-04-28T12:29:43.085Z,98324.81
2023-04-28T12:34:01.042Z,98313.41
2023-04-28T12:38:19.230Z,98238.75
2023-04-28T12:42:37.585Z,98221.47
2023-04-28T12:46:56.362Z,98230.41
2023-04-28T12:51:14.029Z,98192.34
2023-04-28T12:55:31.728Z,98177.75
2023-04-28T12:59:49.349Z,98157.44
2023-04-28T13:04:07.449Z,98186.97
2023-04-28T13:08:25.249Z,98283.75
2023-04-28T13:12:43.364Z,98444.44
2023-04-28T13:17:01.889Z,98591.69
2023-04-28T13:21:19.588Z,98772.50
2023-04-28T13:25:37.172Z,98887.59
2023-04-28T13:29:59.083Z,98961.97
2023-04-28T13:34:17.998Z,99093.69
2023-04-28T13:38:36.729Z,99319.53
2023-04-28T13:42:55.120Z,99707.84
2023-04-28T13:47:12.766Z,99954.72
2023-04-28T13:51:33.289Z,99930.94
2023-04-28T13:55:51.877Z,100340.28
2023-04-28T14:00:10.557Z,100299.22
2023-04-28T14:04:28.366Z,100164.88
2023-04-28T14:08:46.181Z,100151.59
2023-04-28T14:13:03.800Z,99720.16
2023-04-28T14:17:21.926Z,99017.69
2023-04-28T14:21:39.613Z,98994.81
2023-04-28T14:25:58.355Z,98877.03
2023-04-28T14:30:17.271Z,98734.28
2023-04-28T14:34:35.570Z,98518.19
2023-04-28T14:38:53.345Z,98107.81
2023-04-28T14:43:11.272Z,98071.25
2023-04-28T14:47:29.094Z,98063.41
2023-04-28T14:51:47.236Z,98062.03
2023-04-28T14:56:18.112Z,98036.88
2023-04-28T15:00:37.310Z,98033.53
2023-04-28T15:04:58.359Z,98035.84
2023-04-28T15:09:16.124Z,98035.09
2023-04-28T15:13:33.664Z,98019.91
2023-04-28T15:18:10.433Z,98023.00
2023-04-28T15:22:28.032Z,97993.63
2023-04-28T15:26:46.320Z,97983.84
2023-04-28T15:31:05.207Z,97982.19
2023-04-28T15:35:23.228Z,97974.69
2023-04-28T15:39:40.816Z,97973.13
2023-04-28T15:43:58.448Z,97967.38
2023-04-28T15:48:16.601Z,97972.25
2023-04-28T15:52:34.254Z,97964.09
2023-04-28T15:56:52.270Z,97949.81
2023-04-28T16:01:10.069Z,97953.19
2023-04-28T16:05:27.905Z,97937.94
2023-04-28T16:09:45.025Z,97925.47
2023-04-28T16:14:02.771Z,97918.94
2023-04-28T16:18:20.334Z,97919.50
2023-04-28T16:22:40.208Z,97920.13
2023-04-28T16:26:57.729Z,97903.25
2023-04-28T16:31:15.469Z,97890.31
2023-04-28T16:35:33.026Z,97887.41
2023-04-28T16:39:53.067Z,97871.31
2023-04-28T16:44:11.224Z,97877.78
2023-04-28T16:48:29.123Z,97883.72
2023-04-28T16:52:46.950Z,97879.75
2023-04-28T16:57:04.686Z,97871.47
2023-04-28T17:01:22.991Z,97876.59
2023-04-28T17:05:40.666Z,97880.78
2023-04-28T17:09:58.932Z,97876.78
2023-04-28T17:14:16.633Z,97873.34
2023-04-28T17:18:34.480Z,97861.16
2023-04-28T17:22:52.701Z,97861.81
2023-04-28T17:27:11.959Z,97859.69
2023-04-28T17:31:30.023Z,97856.97
2023-04-28T17:35:47.740Z,97853.78
2023-04-28T17:40:05.757Z,97850.63
2023-04-28T17:44:23.526Z,97850.06
2023-04-28T17:48:42.753Z,97856.19
2023-04-28T17:53:00.400Z,97855.50
2023-04-28T17:57:18.710Z,97846.34
2023-04-28T18:01:36.441Z,97851.22
2023-04-28T18:05:54.326Z,97850.75
2023-04-28T18:10:12.045Z,97853.16
2023-04-28T18:14:30.330Z,97858.44
2023-04-28T18:18:48.781Z,97860.19
2023-04-28T18:23:07.153Z,97859.06
2023-04-28T18:27:24.783Z,97861.06
2023-04-28T18:31:42.799Z,97869.13
2023-04-28T18:36:07.655Z,97868.31
2023-04-28T18:40:25.415Z,97869.00
2023-04-28T18:44:43.734Z,97863.22
2023-04-28T18:49:03.496Z,97867.72
2023-04-28T18:53:21.424Z,97867.06
2023-04-28T18:57:40.752Z,97867.31
2023-04-28T19:01:58.785Z,97866.84
2023-04-28T19:06:18.063Z,97862.78
2023-04-28T19:10:36.785Z,97863.81
2023-04-28T19:14:54.911Z,97868.09
2023-04-28T19:19:13.675Z,97870.59
2023-04-28T19:23:33.097Z,97875.00
2023-04-28T19:27:53.269Z,97875.22
2023-04-28T19:32:12.621Z,97882.03
2023-04-28T19:36:30.215Z,97885.63
2023-04-28T19:40:47.966Z,97896.28
2023-04-28T19:45:07.508Z,97901.38
2023-04-28T19:49:28.702Z,97894.03
2023-04-28T19:53:47.377Z,97884.63
2023-04-28T19:58:06.497Z,97887.59
2023-04-28T20:02:24.610Z,97897.31
2023-04-28T20:06:45.606Z,97888.91
2023-04-28T20:11:03.939Z,97885.28
2023-04-28T20:15:21.923Z,97882.69
2023-04-28T20:19:39.716Z,97885.53
2023-04-28T20:23:57.666Z,97883.25
2023-04-28T20:28:18.412Z,97875.09
2023-04-28T20:32:37.131Z,97869.19
2023-04-28T20:36:55.931Z,97865.72
2023-04-28T20:41:13.901Z,97863.44
2023-04-28T20:45:32.403Z,97862.00
2023-04-28T20:49:50.435Z,97860.50
2023-04-28T20:54:08.841Z,97858.81
2023-04-28T20:58:26.528Z,97846.13
2023-04-28T21:02:44.277Z,97848.06
2023-04-28T21:07:02.287Z,97844.44
2023-04-28T21:11:19.911Z,97849.97
2023-04-28T21:15:39.280Z,97841.13
2023-04-28T21:19:57.597Z,97840.22
2023-04-28T21:24:15.413Z,97843.06
2023-04-28T21:28:34.403Z,97833.59
2023-04-28T21:32:52.169Z,97834.91
2023-04-28T21:37:09.713Z,97829.72
2023-04-28T21:41:27.435Z,97834.16
2023-04-28T21:45:45.129Z,97831.53
2023-04-28T21:50:02.898Z,97831.44
2023-04-28T21:54:21.316Z,97824.31
2023-04-28T21:58:39.557Z,97822.06
2023-04-28T22:02:58.140Z,97829.63
2023-04-28T22:07:16.546Z,97827.94
2023-04-28T22:11:34.117Z,97826.56
2023-04-28T22:15:52.896Z,97821.91
2023-04-28T22:20:10.973Z,97821.03
2023-04-28T22:24:28.824Z,97820.94
2023-04-28T22:28:46.454Z,97816.28
2023-04-28T22:33:04.166Z,97824.41
2023-04-28T22:37:21.752Z,97821.81
2023-04-28T22:41:39.530Z,97808.81
2023-04-28T22:46:00.138Z,97810.19
2023-04-28T22:50:18.299Z,97810.97
2023-04-28T22:54:39.061Z,97807.91
2023-04-28T22:58:58.530Z,97815.47
2023-04-28T23:03:16.366Z,97807.13
2023-04-28T23:07:34.328Z,97804.97
2023-04-28T23:11:51.826Z,97807.78
2023-04-28T23:16:09.697Z,97805.75
2023-04-28T23:20:27.454Z,97801.94
2023-04-28T23:24:45.465Z,97795.94
2023-04-28T23:29:03.232Z,97789.72
2023-04-28T23:33:20.958Z,97790.16
2023-04-28T23:37:38.701Z,97782.25
2023-04-28T23:41:56.427Z,97773.84
2023-04-28T23:46:14.641Z,97771.84
2023-04-28T23:50:32.043Z,97774.66
2023-04-28T23:54:49.850Z,97771.59
2023-04-28T23:59:08.524Z,97771.94
